createdAt,value
2023-01-19T02:16:24.239Z,9.45
2023-01-19T02:19:42.729Z,9.65
2023-01-19T02:22:45.843Z,11.13
2023-01-19T03:31:45.402Z,5.45
2023-01-19T03:52:10.697Z,4.35
2023-01-19T03:59:36.255Z,5.18
2023-01-19T04:13:21.588Z,4.35
2023-01-19T04:19:28.212Z,4.22
2023-01-19T04:21:59.537Z,4.80
2023-01-19T04:24:30.130Z,5.65
2023-01-19T04:27:15.489Z,4.10
2023-01-19T04:30:01.583Z,4.05
2023-01-19T04:32:32.648Z,3.95
2023-01-19T04:35:06.295Z,4.70
2023-01-19T04:37:45.347Z,3.90
2023-01-19T04:40:14.425Z,4.25
2023-01-19T04:43:10.698Z,3.55
2023-01-19T04:45:46.797Z,3.95
2023-01-19T04:48:18.375Z,4.57
2023-01-19T04:50:55.307Z,4.10
2023-01-19T04:53:26.457Z,3.20
2023-01-19T04:56:23.828Z,4.50
2023-01-19T04:58:51.288Z,4.60
2023-01-19T05:01:18.612Z,5.90
2023-01-19T05:03:48.932Z,8.57
2023-01-19T05:06:18.665Z,8.55
2023-01-19T05:08:52.875Z,4.78
2023-01-19T05:11:21.947Z,4.68
2023-01-19T05:13:51.768Z,4.70
2023-01-19T05:16:19.458Z,5.20
2023-01-19T05:18:48.189Z,5.10
2023-01-19T05:21:15.623Z,5.40
2023-01-19T05:23:48.068Z,3.42
2023-01-19T05:26:15.486Z,4.28
2023-01-19T05:28:42.825Z,4.43
2023-01-19T05:31:10.154Z,2.97
2023-01-19T05:33:41.256Z,3.22
2023-01-19T05:36:09.989Z,3.05
2023-01-19T05:38:44.398Z,3.58
2023-01-19T05:41:11.881Z,3.33
2023-01-19T05:43:39.037Z,3.22
2023-01-19T05:46:10.194Z,3.65
2023-01-19T05:48:38.549Z,3.03
2023-01-19T05:51:06.430Z,3.30
2023-01-19T05:53:37.065Z,1.52
2023-01-19T05:56:08.816Z,2.63
2023-01-19T05:58:40.473Z,1.88
2023-01-19T06:01:09.524Z,1.63
2023-01-19T06:03:39.934Z,1.88
2023-01-19T06:06:07.807Z,1.50
2023-01-19T06:08:35.404Z,1.20
2023-01-19T06:11:10.118Z,1.17
2023-01-19T06:13:41.256Z,2.20
2023-01-19T06:16:10.780Z,1.93
2023-01-19T06:18:38.680Z,2.85
2023-01-19T06:21:08.501Z,3.05
2023-01-19T06:23:37.106Z,3.88
2023-01-19T06:26:04.716Z,2.38
2023-01-19T06:28:32.759Z,2.38
2023-01-19T06:31:00.308Z,1.55
2023-01-19T06:33:28.169Z,2.45
2023-01-19T06:35:56.181Z,3.25
2023-01-19T06:38:28.174Z,1.98
2023-01-19T06:41:02.921Z,2.60
2023-01-19T06:43:31.673Z,2.28
2023-01-19T06:46:00.664Z,3.13
2023-01-19T06:48:28.337Z,2.72
2023-01-19T06:50:58.456Z,2.08
2023-01-19T06:53:28.143Z,2.35
2023-01-19T06:56:01.908Z,3.00
2023-01-19T06:58:30.585Z,2.03
2023-01-19T07:01:05.811Z,2.65
2023-01-19T07:03:34.554Z,4.57
2023-01-19T07:06:02.824Z,2.33
2023-01-19T07:08:30.786Z,1.92
2023-01-19T07:11:25.850Z,1.30
2023-01-19T07:13:54.318Z,3.53
2023-01-19T07:16:21.949Z,2.13
2023-01-19T07:18:52.432Z,1.92
2023-01-19T07:21:20.004Z,2.20
2023-01-19T07:23:51.130Z,2.72
2023-01-19T07:26:21.630Z,3.13
2023-01-19T07:28:49.774Z,4.15
2023-01-19T07:31:19.424Z,3.47
2023-01-19T07:33:47.329Z,2.33
2023-01-19T07:36:15.532Z,2.25
2023-01-19T07:38:43.063Z,4.20
2023-01-19T07:41:10.950Z,3.13
2023-01-19T07:43:38.518Z,4.40
2023-01-19T07:46:09.323Z,6.78
2023-01-19T07:48:36.822Z,7.13
2023-01-19T07:51:05.963Z,5.82
2023-01-19T07:53:33.492Z,5.57
2023-01-19T07:56:01.033Z,5.45
2023-01-19T07:58:29.601Z,5.18
2023-01-19T08:00:58.283Z,6.88
2023-01-19T08:03:25.820Z,7.88
2023-01-19T08:05:53.714Z,8.48
2023-01-19T08:08:21.608Z,5.18
2023-01-19T08:10:52.497Z,11.75
2023-01-19T08:13:23.023Z,4.45
2023-01-19T08:15:54.242Z,3.60
2023-01-19T08:18:22.255Z,4.70
2023-01-19T08:20:49.460Z,6.85
2023-01-19T08:23:18.180Z,9.52
2023-01-19T08:25:46.056Z,16.55
2023-01-19T08:28:15.920Z,9.70
2023-01-19T08:30:45.073Z,13.43
2023-01-19T08:33:13.854Z,23.98
2023-01-19T08:35:43.875Z,17.65
2023-01-19T08:38:11.415Z,15.75
2023-01-19T08:40:40.666Z,8.73
2023-01-19T08:43:17.957Z,8.20
2023-01-19T08:45:51.743Z,8.73
2023-01-19T08:48:22.280Z,9.90
2023-01-19T08:50:51.993Z,10.40
2023-01-19T08:53:23.376Z,8.32
2023-01-19T08:55:55.236Z,8.85
2023-01-19T08:58:23.133Z,7.82
2023-01-19T09:00:52.777Z,7.97
2023-01-19T09:03:22.735Z,7.80
2023-01-19T09:05:50.617Z,10.18
2023-01-19T09:08:18.696Z,9.93
2023-01-19T09:10:49.202Z,10.57
2023-01-19T09:13:17.611Z,9.93
2023-01-19T09:15:46.960Z,10.50
2023-01-19T09:18:17.880Z,9.40
2023-01-19T09:20:47.482Z,12.27
2023-01-19T09:23:17.729Z,8.55
2023-01-19T09:25:49.240Z,10.77
2023-01-19T09:28:17.951Z,10.13
2023-01-19T09:30:45.731Z,14.38
2023-01-19T09:33:15.373Z,11.13
2023-01-19T09:35:44.658Z,14.30
2023-01-19T09:38:13.314Z,13.50
2023-01-19T09:40:57.822Z,13.20
2023-01-19T09:43:37.189Z,14.05
2023-01-19T09:46:27.213Z,11.52
2023-01-19T09:49:22.625Z,14.55
2023-01-19T09:51:57.940Z,13.27
2023-01-19T09:55:08.362Z,12.25
2023-01-19T09:58:02.670Z,14.50
2023-01-19T10:00:33.271Z,19.02
2023-01-19T10:03:21.049Z,52.60
2023-01-19T11:08:34.789Z,27.38
2023-01-19T11:28:45.154Z,13.75
2023-01-19T11:35:37.556Z,13.18
2023-01-19T11:53:19.599Z,15.93
2023-01-19T12:05:53.269Z,11.73
2023-01-19T12:15:39.574Z,19.05
2023-01-19T12:18:26.355Z,18.40
2023-01-19T13:03:41.463Z,23.83
2023-01-19T13:06:30.115Z,24.30
2023-01-19T13:09:01.460Z,21.90
2023-01-19T13:12:07.629Z,21.38
2023-01-19T13:14:38.517Z,20.55
2023-01-19T13:17:41.405Z,23.48
2023-01-19T13:20:27.986Z,22.98
2023-01-19T13:23:27.781Z,22.67
2023-01-19T13:37:02.187Z,19.10
2023-01-19T13:39:51.142Z,22.17
2023-01-19T13:42:41.429Z,23.48
2023-01-19T13:49:54.828Z,22.30
2023-01-19T13:55:44.378Z,18.88
2023-01-19T14:13:16.781Z,30.40
2023-01-19T14:22:04.725Z,26.73
2023-01-19T14:27:36.027Z,28.15
2023-01-19T14:34:51.271Z,29.13
2023-01-19T14:37:38.400Z,26.50
2023-01-19T14:40:36.242Z,37.40
2023-01-19T14:43:22.283Z,27.88
2023-01-19T14:45:56.571Z,23.45
2023-01-19T14:48:24.036Z,25.90
2023-01-19T14:51:03.131Z,23.13
2023-01-19T14:53:39.040Z,26.13
2023-01-19T14:56:14.399Z,22.05
2023-01-19T14:59:18.775Z,21.45
2023-01-19T15:01:57.319Z,20.00
2023-01-19T15:04:30.493Z,27.20
2023-01-19T15:07:08.292Z,23.88
2023-01-19T15:09:44.547Z,23.30
2023-01-19T15:12:33.704Z,27.80
2023-01-19T15:15:32.972Z,26.45
2023-01-19T15:18:05.304Z,29.20
2023-01-19T15:20:33.088Z,25.88
2023-01-19T15:23:00.603Z,30.27
2023-01-19T15:25:30.218Z,26.70
2023-01-19T15:27:59.633Z,28.58
2023-01-19T15:30:31.190Z,30.88
2023-01-19T15:32:59.196Z,33.88
2023-01-19T15:35:26.850Z,28.98
2023-01-19T15:37:54.759Z,24.45
2023-01-19T15:40:25.735Z,22.55
2023-01-19T15:42:53.196Z,24.52
2023-01-19T15:45:41.848Z,24.02
2023-01-19T15:48:11.823Z,27.48
2023-01-19T15:50:45.915Z,31.48
2023-01-19T15:53:19.899Z,88.28
2023-01-19T15:55:56.979Z,33.67
2023-01-19T15:58:25.328Z,33.67
2023-01-19T16:00:58.519Z,34.85
2023-01-19T16:03:38.810Z,34.47
2023-01-19T16:06:11.397Z,33.83
2023-01-19T16:08:40.653Z,35.35
2023-01-19T16:11:10.670Z,38.30
2023-01-19T16:13:39.381Z,89.78
2023-01-19T16:16:28.429Z,31.50
2023-01-19T16:18:57.692Z,32.47
2023-01-19T16:21:25.470Z,34.03
2023-01-19T16:23:53.149Z,31.42
2023-01-19T16:26:26.707Z,32.08
2023-01-19T16:28:57.706Z,29.50
2023-01-19T16:31:25.538Z,33.88
2023-01-19T16:33:54.209Z,34.20
2023-01-19T16:36:31.775Z,34.78
2023-01-19T16:39:05.122Z,34.45
2023-01-19T16:41:36.323Z,82.38
2023-01-19T16:44:04.608Z,49.70
2023-01-19T16:46:35.501Z,43.83
2023-01-19T16:49:06.147Z,43.92
2023-01-19T16:51:34.310Z,38.35
2023-01-19T16:54:02.356Z,39.25
2023-01-19T16:56:30.282Z,35.78
2023-01-19T16:59:00.222Z,35.55
2023-01-19T17:01:29.681Z,38.70
2023-01-19T17:03:57.684Z,34.85
2023-01-19T17:06:26.280Z,45.95
2023-01-19T17:08:54.047Z,43.25
2023-01-19T17:11:25.436Z,35.25
2023-01-19T17:14:02.940Z,33.78
2023-01-19T17:16:33.834Z,35.97
2023-01-19T17:19:04.867Z,36.47
2023-01-19T17:21:38.675Z,38.08
2023-01-19T17:24:30.008Z,37.88
2023-01-19T17:26:58.065Z,36.10
2023-01-19T17:29:26.356Z,40.05
2023-01-19T17:31:54.792Z,38.35
2023-01-19T17:34:22.744Z,41.38
2023-01-19T17:36:51.819Z,37.65
2023-01-19T17:39:22.655Z,42.85
2023-01-19T17:41:51.079Z,36.83
2023-01-19T17:44:20.291Z,45.25
2023-01-19T17:46:48.889Z,38.65
2023-01-19T17:49:17.003Z,39.65
2023-01-19T17:51:45.592Z,33.33
2023-01-19T17:54:16.761Z,39.85
2023-01-19T17:56:47.158Z,39.08
2023-01-19T17:59:15.510Z,38.58
2023-01-19T18:01:45.392Z,40.20
2023-01-19T18:04:14.477Z,35.45
2023-01-19T18:06:44.102Z,40.85
2023-01-19T18:09:13.520Z,33.90
2023-01-19T18:11:44.750Z,34.65
2023-01-19T18:14:16.203Z,38.35
2023-01-19T18:16:47.191Z,51.95
2023-01-19T18:19:15.671Z,56.22
2023-01-19T18:21:44.143Z,76.53
2023-01-19T18:24:12.715Z,47.47
2023-01-19T18:26:43.814Z,49.90
2023-01-19T18:29:12.444Z,122.10
2023-01-19T18:31:43.488Z,33.05
2023-01-19T18:34:35.596Z,57.00
2023-01-19T18:37:04.282Z,52.75
2023-01-19T18:39:33.087Z,43.45
2023-01-19T18:42:02.116Z,63.42
2023-01-19T18:44:30.644Z,70.88
2023-01-19T18:46:59.366Z,44.47
2023-01-19T18:49:28.163Z,42.00
2023-01-19T18:51:57.308Z,39.75
2023-01-19T18:54:45.775Z,37.35
2023-01-19T18:57:14.635Z,31.98
2023-01-19T19:00:04.945Z,30.85
2023-01-19T19:02:37.854Z,34.00
2023-01-19T19:05:12.593Z,33.15
2023-01-19T19:07:42.520Z,28.50
2023-01-19T19:10:13.907Z,36.00
2023-01-19T19:12:42.774Z,50.75
2023-01-19T19:15:11.628Z,33.70
2023-01-19T19:17:42.343Z,30.25
2023-01-19T19:20:13.431Z,27.15
2023-01-19T19:22:42.260Z,32.65
2023-01-19T19:25:11.312Z,25.35
2023-01-19T19:27:41.665Z,52.15
2023-01-19T19:30:14.358Z,33.60
2023-01-19T19:32:43.536Z,35.65
2023-01-19T19:35:19.869Z,60.08
2023-01-19T19:37:50.731Z,29.27
2023-01-19T19:40:22.080Z,26.88
2023-01-19T19:42:51.691Z,23.58
2023-01-19T19:45:20.484Z,27.13
2023-01-19T19:47:49.333Z,25.02
2023-01-19T19:50:19.060Z,24.58
2023-01-19T19:52:48.899Z,26.58
2023-01-19T19:55:19.186Z,21.83
2023-01-19T19:57:48.121Z,26.17
2023-01-19T20:00:19.040Z,25.50
2023-01-19T20:02:47.762Z,32.50
2023-01-19T20:05:16.028Z,30.77
2023-01-19T20:07:51.492Z,31.42
2023-01-19T20:10:20.627Z,30.27
2023-01-19T20:12:56.307Z,28.17
2023-01-19T20:15:24.951Z,30.38
2023-01-19T20:17:59.170Z,27.92
2023-01-19T20:20:28.841Z,34.08
2023-01-19T20:23:00.147Z,24.40
2023-01-19T20:25:32.390Z,25.45
2023-01-19T20:28:03.074Z,26.10
2023-01-19T20:30:32.952Z,23.15
2023-01-19T20:33:02.160Z,21.52
2023-01-19T20:35:32.300Z,22.90
2023-01-19T20:38:01.574Z,23.98
2023-01-19T20:40:30.366Z,24.85
2023-01-19T20:42:58.542Z,31.40
2023-01-19T20:45:29.078Z,27.98
2023-01-19T20:47:57.670Z,25.30
2023-01-19T20:50:27.640Z,25.25
2023-01-19T20:52:56.232Z,27.52
2023-01-19T20:55:24.704Z,23.48
2023-01-19T20:57:53.493Z,31.65
2023-01-19T21:00:22.369Z,27.52
2023-01-19T21:02:52.214Z,28.92
2023-01-19T21:05:20.264Z,28.40
2023-01-19T21:07:51.324Z,27.95
2023-01-19T21:10:19.311Z,24.17
2023-01-19T21:12:50.694Z,29.63
2023-01-19T21:15:27.287Z,21.10
2023-01-19T21:17:57.658Z,21.10
2023-01-19T21:20:25.977Z,19.50
2023-01-19T21:22:54.371Z,19.13
2023-01-19T21:25:22.434Z,22.67
2023-01-19T21:27:51.392Z,21.48
2023-01-19T21:30:19.723Z,18.15
2023-01-19T21:32:47.252Z,20.88
2023-01-19T21:35:15.010Z,24.48
2023-01-19T21:37:42.933Z,22.40
2023-01-19T21:40:11.207Z,19.58
2023-01-19T21:42:40.432Z,17.80
2023-01-19T21:45:08.930Z,19.10
2023-01-19T21:47:36.985Z,27.52
2023-01-19T21:50:05.139Z,30.38
2023-01-19T21:52:32.599Z,24.92
2023-01-19T21:55:00.105Z,23.88
2023-01-19T21:57:27.641Z,25.23
2023-01-19T21:59:55.857Z,23.80
2023-01-19T22:02:37.738Z,27.38
2023-01-19T22:05:06.720Z,23.23
2023-01-19T22:07:34.469Z,24.60
2023-01-19T22:10:02.226Z,23.58
2023-01-19T22:12:29.592Z,22.92
2023-01-19T22:14:57.011Z,24.63
2023-01-19T22:17:24.485Z,22.58
2023-01-19T22:19:52.194Z,21.10
2023-01-19T22:22:19.652Z,24.88
2023-01-19T22:24:51.457Z,25.25
2023-01-19T22:27:19.299Z,20.33
2023-01-19T22:29:47.622Z,22.92
2023-01-19T22:32:18.049Z,15.68
2023-01-19T22:34:45.505Z,21.02
2023-01-19T22:37:12.997Z,21.63
2023-01-19T22:39:42.851Z,21.48
2023-01-19T22:42:10.372Z,29.77
2023-01-19T22:44:39.125Z,24.67
2023-01-19T22:47:09.377Z,25.20
2023-01-19T22:49:37.485Z,28.85
2023-01-19T22:52:07.950Z,21.58
2023-01-19T22:54:35.623Z,20.85
2023-01-19T22:57:03.214Z,20.50
2023-01-19T22:59:30.965Z,20.70
2023-01-19T23:01:58.666Z,17.50
2023-01-19T23:04:26.273Z,19.30
2023-01-19T23:06:53.737Z,20.85
2023-01-19T23:09:21.140Z,20.45
2023-01-19T23:11:50.765Z,22.20
2023-01-19T23:14:21.181Z,21.77
2023-01-19T23:16:48.877Z,22.02
2023-01-19T23:19:19.951Z,23.83
2023-01-19T23:21:51.354Z,22.10
2023-01-19T23:24:19.012Z,19.90
2023-01-19T23:26:46.543Z,23.67
2023-01-19T23:29:15.370Z,20.48
2023-01-19T23:31:45.620Z,25.95
2023-01-19T23:34:16.996Z,25.83
2023-01-19T23:36:44.559Z,28.70
2023-01-19T23:39:17.988Z,27.48
2023-01-19T23:41:45.769Z,26.75
2023-01-19T23:44:13.282Z,32.05
2023-01-19T23:46:41.002Z,25.70
2023-01-19T23:49:08.495Z,23.08
2023-01-19T23:51:36.020Z,22.77
2023-01-19T23:54:03.976Z,30.70
2023-01-19T23:56:34.439Z,48.65
2023-01-19T23:59:08.626Z,42.97
